sensor_id;sensor_type;location;lat;lon;timestamp;P1;durP1;ratioP1;P2;durP2;ratioP2
6378;SDS011;3222;48.858;10.128;2024-02-26T00:01:41;6.47;;;3.67;;
6378;SDS011;3222;48.858;10.128;2024-02-26T00:04:08;4.03;;;3.70;;
6378;SDS011;3222;48.858;10.128;2024-02-26T00:06:34;4.00;;;3.53;;
6378;SDS011;3222;48.858;10.128;2024-02-26T00:09:00;4.10;;;3.50;;
6378;SDS011;3222;48.858;10.128;2024-02-26T00:11:27;4.97;;;4.00;;
6378;SDS011;3222;48.858;10.128;2024-02-26T00:13:53;4.67;;;3.60;;
6378;SDS011;3222;48.858;10.128;2024-02-26T00:16:19;4.30;;;3.80;;
6378;SDS011;3222;48.858;10.128;2024-02-26T00:18:44;4.20;;;3.80;;
6378;SDS011;3222;48.858;10.128;2024-02-26T00:21:11;4.30;;;3.90;;
6378;SDS011;3222;48.858;10.128;2024-02-26T00:23:36;4.30;;;3.93;;
6378;SDS011;3222;48.858;10.128;2024-02-26T00:26:02;4.30;;;3.90;;
6378;SDS011;3222;48.858;10.128;2024-02-26T00:28:28;4.67;;;3.83;;
6378;SDS011;3222;48.858;10.128;2024-02-26T00:30:54;4.67;;;4.20;;
6378;SDS011;3222;48.858;10.128;2024-02-26T00:33:21;8.03;;;3.77;;
6378;SDS011;3222;48.858;10.128;2024-02-26T00:35:47;4.13;;;3.73;;
6378;SDS011;3222;48.858;10.128;2024-02-26T00:38:13;3.70;;;3.40;;
6378;SDS011;3222;48.858;10.128;2024-02-26T00:40:39;4.07;;;3.77;;
6378;SDS011;3222;48.858;10.128;2024-02-26T00:43:07;4.00;;;3.70;;
6378;SDS011;3222;48.858;10.128;2024-02-26T00:45:33;4.40;;;3.80;;
6378;SDS011;3222;48.858;10.128;2024-02-26T00:47:59;4.83;;;4.00;;
6378;SDS011;3222;48.858;10.128;2024-02-26T00:50:30;6.80;;;4.03;;
6378;SDS011;3222;48.858;10.128;2024-02-26T00:52:56;5.10;;;3.73;;
6378;SDS011;3222;48.858;10.128;2024-02-26T00:55:22;4.43;;;4.03;;
6378;SDS011;3222;48.858;10.128;2024-02-26T00:57:48;3.97;;;3.67;;
6378;SDS011;3222;48.858;10.128;2024-02-26T01:00:13;3.60;;;3.30;;
6378;SDS011;3222;48.858;10.128;2024-02-26T01:02:39;4.93;;;4.10;;
6378;SDS011;3222;48.858;10.128;2024-02-26T01:05:07;3.90;;;3.60;;
6378;SDS011;3222;48.858;10.128;2024-02-26T01:07:36;6.00;;;3.57;;
6378;SDS011;3222;48.858;10.128;2024-02-26T01:10:02;3.57;;;3.27;;
6378;SDS011;3222;48.858;10.128;2024-02-26T01:12:28;4.17;;;3.80;;
6378;SDS011;3222;48.858;10.128;2024-02-26T01:14:54;4.27;;;3.87;;
6378;SDS011;3222;48.858;10.128;2024-02-26T01:17:20;4.73;;;4.00;;
6378;SDS011;3222;48.858;10.128;2024-02-26T01:19:46;4.80;;;4.30;;
6378;SDS011;3222;48.858;10.128;2024-02-26T01:22:11;5.53;;;4.03;;
6378;SDS011;3222;48.858;10.128;2024-02-26T01:24:37;3.63;;;3.33;;
6378;SDS011;3222;48.858;10.128;2024-02-26T01:27:03;3.80;;;3.50;;
6378;SDS011;3222;48.858;10.128;2024-02-26T01:29:29;4.93;;;4.00;;
6378;SDS011;3222;48.858;10.128;2024-02-26T01:31:54;4.07;;;3.67;;
6378;SDS011;3222;48.858;10.128;2024-02-26T01:34:20;4.10;;;3.33;;
6378;SDS011;3222;48.858;10.128;2024-02-26T01:36:46;3.57;;;3.27;;
6378;SDS011;3222;48.858;10.128;2024-02-26T01:39:12;3.73;;;3.10;;
6378;SDS011;3222;48.858;10.128;2024-02-26T01:41:38;3.67;;;3.33;;
6378;SDS011;3222;48.858;10.128;2024-02-26T01:44:06;3.77;;;3.20;;
6378;SDS011;3222;48.858;10.128;2024-02-26T01:46:32;3.67;;;3.20;;
6378;SDS011;3222;48.858;10.128;2024-02-26T01:48:59;3.50;;;3.20;;
6378;SDS011;3222;48.858;10.128;2024-02-26T01:51:27;4.13;;;3.63;;
6378;SDS011;3222;48.858;10.128;2024-02-26T01:53:53;4.03;;;3.63;;
6378;SDS011;3222;48.858;10.128;2024-02-26T01:56:19;4.10;;;3.40;;
6378;SDS011;3222;48.858;10.128;2024-02-26T01:58:47;3.80;;;3.50;;
6378;SDS011;3222;48.858;10.128;2024-02-26T02:01:14;3.70;;;3.33;;
6378;SDS011;3222;48.858;10.128;2024-02-26T02:03:43;4.10;;;3.30;;
6378;SDS011;3222;48.858;10.128;2024-02-26T02:06:09;3.27;;;2.97;;
6378;SDS011;3222;48.858;10.128;2024-02-26T02:08:35;3.40;;;3.10;;
6378;SDS011;3222;48.858;10.128;2024-02-26T02:11:01;3.53;;;3.23;;
6378;SDS011;3222;48.858;10.128;2024-02-26T02:13:27;4.30;;;3.80;;
6378;SDS011;3222;48.858;10.128;2024-02-26T02:15:52;3.77;;;3.40;;
6378;SDS011;3222;48.858;10.128;2024-02-26T02:18:18;3.97;;;3.60;;
6378;SDS011;3222;48.858;10.128;2024-02-26T02:20:44;4.30;;;3.90;;
6378;SDS011;3222;48.858;10.128;2024-02-26T02:23:10;3.77;;;3.10;;
6378;SDS011;3222;48.858;10.128;2024-02-26T02:25:36;3.83;;;3.17;;
6378;SDS011;3222;48.858;10.128;2024-02-26T02:28:02;4.00;;;2.97;;
6378;SDS011;3222;48.858;10.128;2024-02-26T02:30:29;3.53;;;3.23;;
6378;SDS011;3222;48.858;10.128;2024-02-26T02:32:56;4.47;;;3.70;;
6378;SDS011;3222;48.858;10.128;2024-02-26T02:35:23;3.57;;;3.27;;
6378;SDS011;3222;48.858;10.128;2024-02-26T02:37:51;3.40;;;3.10;;
6378;SDS011;3222;48.858;10.128;2024-02-26T02:40:23;3.67;;;3.37;;
6378;SDS011;3222;48.858;10.128;2024-02-26T02:42:49;4.77;;;3.30;;
6378;SDS011;3222;48.858;10.128;2024-02-26T02:45:14;3.50;;;3.20;;
6378;SDS011;3222;48.858;10.128;2024-02-26T02:47:40;3.33;;;3.03;;
6378;SDS011;3222;48.858;10.128;2024-02-26T02:50:06;6.80;;;2.87;;
6378;SDS011;3222;48.858;10.128;2024-02-26T02:52:32;3.73;;;2.97;;
6378;SDS011;3222;48.858;10.128;2024-02-26T02:54:58;3.73;;;3.33;;
6378;SDS011;3222;48.858;10.128;2024-02-26T02:57:23;2.73;;;2.57;;
6378;SDS011;3222;48.858;10.128;2024-02-26T02:59:49;3.73;;;3.30;;
6378;SDS011;3222;48.858;10.128;2024-02-26T03:02:15;3.40;;;3.10;;
6378;SDS011;3222;48.858;10.128;2024-02-26T03:04:40;4.30;;;3.20;;
6378;SDS011;3222;48.858;10.128;2024-02-26T03:07:06;3.10;;;2.90;;
6378;SDS011;3222;48.858;10.128;2024-02-26T03:09:31;5.60;;;3.43;;
6378;SDS011;3222;48.858;10.128;2024-02-26T03:11:57;4.30;;;3.80;;
6378;SDS011;3222;48.858;10.128;2024-02-26T03:14:23;4.37;;;3.90;;
6378;SDS011;3222;48.858;10.128;2024-02-26T03:16:52;4.57;;;3.77;;
6378;SDS011;3222;48.858;10.128;2024-02-26T03:19:19;4.57;;;4.10;;
6378;SDS011;3222;48.858;10.128;2024-02-26T03:21:45;6.03;;;4.20;;
6378;SDS011;3222;48.858;10.128;2024-02-26T03:24:10;5.60;;;4.10;;
6378;SDS011;3222;48.858;10.128;2024-02-26T03:26:37;5.17;;;4.47;;
6378;SDS011;3222;48.858;10.128;2024-02-26T03:29:03;6.00;;;4.40;;
6378;SDS011;3222;48.858;10.128;2024-02-26T03:31:29;4.33;;;3.93;;
6378;SDS011;3222;48.858;10.128;2024-02-26T03:33:54;4.90;;;4.40;;
6378;SDS011;3222;48.858;10.128;2024-02-26T03:36:20;4.83;;;4.20;;
6378;SDS011;3222;48.858;10.128;2024-02-26T03:38:46;5.57;;;4.70;;
6378;SDS011;3222;48.858;10.128;2024-02-26T03:41:13;5.20;;;4.30;;
6378;SDS011;3222;48.858;10.128;2024-02-26T03:43:39;5.37;;;4.20;;
6378;SDS011;3222;48.858;10.128;2024-02-26T03:46:08;4.90;;;4.40;;
6378;SDS011;3222;48.858;10.128;2024-02-26T03:48:38;4.77;;;4.00;;
6378;SDS011;3222;48.858;10.128;2024-02-26T03:51:08;6.10;;;4.70;;
6378;SDS011;3222;48.858;10.128;2024-02-26T03:53:35;5.07;;;4.40;;
6378;SDS011;3222;48.858;10.128;2024-02-26T03:56:04;4.60;;;4.17;;
6378;SDS011;3222;48.858;10.128;2024-02-26T03:58:31;6.40;;;4.33;;
6378;SDS011;3222;48.858;10.128;2024-02-26T04:00:56;4.50;;;4.10;;
6378;SDS011;3222;48.858;10.128;2024-02-26T04:03:22;4.27;;;3.90;;
6378;SDS011;3222;48.858;10.128;2024-02-26T04:05:48;4.27;;;3.87;;
6378;SDS011;3222;48.858;10.128;2024-02-26T04:08:13;4.33;;;3.87;;
6378;SDS011;3222;48.858;10.128;2024-02-26T04:10:39;4.97;;;4.47;;
6378;SDS011;3222;48.858;10.128;2024-02-26T04:13:06;5.17;;;4.47;;
6378;SDS011;3222;48.858;10.128;2024-02-26T04:15:32;5.53;;;4.30;;
6378;SDS011;3222;48.858;10.128;2024-02-26T04:17:58;4.40;;;4.00;;
6378;SDS011;3222;48.858;10.128;2024-02-26T04:20:24;4.57;;;3.90;;
6378;SDS011;3222;48.858;10.128;2024-02-26T04:22:50;4.80;;;4.30;;
6378;SDS011;3222;48.858;10.128;2024-02-26T04:25:15;5.93;;;4.40;;
6378;SDS011;3222;48.858;10.128;2024-02-26T04:27:41;4.10;;;3.70;;
6378;SDS011;3222;48.858;10.128;2024-02-26T04:30:07;5.40;;;3.90;;
6378;SDS011;3222;48.858;10.128;2024-02-26T04:32:33;5.50;;;4.17;;
6378;SDS011;3222;48.858;10.128;2024-02-26T04:34:59;4.57;;;4.00;;
6378;SDS011;3222;48.858;10.128;2024-02-26T04:37:26;4.40;;;4.00;;
6378;SDS011;3222;48.858;10.128;2024-02-26T04:39:59;5.60;;;4.17;;
6378;SDS011;3222;48.858;10.128;2024-02-26T04:42:26;3.53;;;3.23;;
6378;SDS011;3222;48.858;10.128;2024-02-26T04:44:52;3.87;;;3.57;;
6378;SDS011;3222;48.858;10.128;2024-02-26T04:47:18;4.00;;;3.60;;
6378;SDS011;3222;48.858;10.128;2024-02-26T04:49:43;4.30;;;3.90;;
6378;SDS011;3222;48.858;10.128;2024-02-26T04:52:09;4.27;;;3.87;;
6378;SDS011;3222;48.858;10.128;2024-02-26T04:54:35;4.57;;;4.00;;
6378;SDS011;3222;48.858;10.128;2024-02-26T04:57:00;4.03;;;3.60;;
6378;SDS011;3222;48.858;10.128;2024-02-26T04:59:26;3.30;;;3.00;;
6378;SDS011;3222;48.858;10.128;2024-02-26T05:01:52;3.50;;;3.20;;
6378;SDS011;3222;48.858;10.128;2024-02-26T05:04:19;3.27;;;2.97;;
6378;SDS011;3222;48.858;10.128;2024-02-26T05:06:44;3.33;;;3.10;;
6378;SDS011;3222;48.858;10.128;2024-02-26T05:09:10;3.80;;;3.17;;
6378;SDS011;3222;48.858;10.128;2024-02-26T05:11:36;3.97;;;3.40;;
6378;SDS011;3222;48.858;10.128;2024-02-26T05:14:02;4.20;;;3.80;;
6378;SDS011;3222;48.858;10.128;2024-02-26T05:16:28;4.40;;;3.50;;
6378;SDS011;3222;48.858;10.128;2024-02-26T05:18:56;4.33;;;3.90;;
6378;SDS011;3222;48.858;10.128;2024-02-26T05:21:22;4.20;;;3.80;;
6378;SDS011;3222;48.858;10.128;2024-02-26T05:23:47;4.43;;;4.00;;
6378;SDS011;3222;48.858;10.128;2024-02-26T05:26:19;3.73;;;3.40;;
6378;SDS011;3222;48.858;10.128;2024-02-26T05:28:45;5.17;;;3.80;;
6378;SDS011;3222;48.858;10.128;2024-02-26T05:31:12;3.73;;;3.43;;
6378;SDS011;3222;48.858;10.128;2024-02-26T05:33:39;3.57;;;3.27;;
6378;SDS011;3222;48.858;10.128;2024-02-26T05:36:04;3.50;;;3.20;;
6378;SDS011;3222;48.858;10.128;2024-02-26T05:38:31;5.03;;;3.43;;
6378;SDS011;3222;48.858;10.128;2024-02-26T05:40:57;4.20;;;3.80;;
6378;SDS011;3222;48.858;10.128;2024-02-26T05:43:24;3.80;;;3.50;;
6378;SDS011;3222;48.858;10.128;2024-02-26T05:45:50;4.30;;;3.90;;
6378;SDS011;3222;48.858;10.128;2024-02-26T05:48:16;4.00;;;3.60;;
6378;SDS011;3222;48.858;10.128;2024-02-26T05:50:41;6.90;;;5.30;;
6378;SDS011;3222;48.858;10.128;2024-02-26T05:53:07;5.83;;;5.17;;
6378;SDS011;3222;48.858;10.128;2024-02-26T05:55:33;7.23;;;5.60;;
6378;SDS011;3222;48.858;10.128;2024-02-26T05:57:58;5.77;;;5.07;;
6378;SDS011;3222;48.858;10.128;2024-02-26T06:00:24;5.53;;;4.80;;
6378;SDS011;3222;48.858;10.128;2024-02-26T06:02:50;5.57;;;4.73;;
6378;SDS011;3222;48.858;10.128;2024-02-26T06:05:15;5.87;;;4.53;;
6378;SDS011;3222;48.858;10.128;2024-02-26T06:07:41;5.47;;;4.53;;
6378;SDS011;3222;48.858;10.128;2024-02-26T06:10:07;5.13;;;4.40;;
6378;SDS011;3222;48.858;10.128;2024-02-26T06:12:35;6.20;;;4.67;;
6378;SDS011;3222;48.858;10.128;2024-02-26T06:15:01;3.60;;;3.30;;
6378;SDS011;3222;48.858;10.128;2024-02-26T06:17:26;4.60;;;3.80;;
6378;SDS011;3222;48.858;10.128;2024-02-26T06:19:53;4.67;;;3.40;;
6378;SDS011;3222;48.858;10.128;2024-02-26T06:22:19;5.70;;;4.60;;
6378;SDS011;3222;48.858;10.128;2024-02-26T06:24:44;6.97;;;5.50;;
6378;SDS011;3222;48.858;10.128;2024-02-26T06:27:10;6.97;;;5.40;;
6378;SDS011;3222;48.858;10.128;2024-02-26T06:29:36;5.70;;;5.10;;
6378;SDS011;3222;48.858;10.128;2024-02-26T06:32:01;7.17;;;5.67;;
6378;SDS011;3222;48.858;10.128;2024-02-26T06:34:27;6.37;;;5.50;;
6378;SDS011;3222;48.858;10.128;2024-02-26T06:36:53;5.80;;;5.00;;
6378;SDS011;3222;48.858;10.128;2024-02-26T06:39:18;5.13;;;4.63;;
6378;SDS011;3222;48.858;10.128;2024-02-26T06:41:44;9.03;;;4.77;;
6378;SDS011;3222;48.858;10.128;2024-02-26T06:44:12;4.90;;;4.50;;
6378;SDS011;3222;48.858;10.128;2024-02-26T06:46:38;5.67;;;5.10;;
6378;SDS011;3222;48.858;10.128;2024-02-26T06:49:04;5.20;;;4.70;;
6378;SDS011;3222;48.858;10.128;2024-02-26T06:51:30;5.83;;;5.20;;
6378;SDS011;3222;48.858;10.128;2024-02-26T06:53:56;7.33;;;5.60;;
6378;SDS011;3222;48.858;10.128;2024-02-26T06:56:21;6.30;;;5.00;;
6378;SDS011;3222;48.858;10.128;2024-02-26T06:58:47;7.07;;;5.23;;
6378;SDS011;3222;48.858;10.128;2024-02-26T07:01:13;5.33;;;4.83;;
6378;SDS011;3222;48.858;10.128;2024-02-26T07:03:41;5.27;;;4.43;;
6378;SDS011;3222;48.858;10.128;2024-02-26T07:06:08;6.13;;;4.17;;
6378;SDS011;3222;48.858;10.128;2024-02-26T07:08:33;4.50;;;4.10;;
6378;SDS011;3222;48.858;10.128;2024-02-26T07:10:59;4.97;;;4.00;;
6378;SDS011;3222;48.858;10.128;2024-02-26T07:13:25;4.13;;;3.80;;
6378;SDS011;3222;48.858;10.128;2024-02-26T07:15:50;5.43;;;4.13;;
6378;SDS011;3222;48.858;10.128;2024-02-26T07:18:16;3.87;;;3.57;;
6378;SDS011;3222;48.858;10.128;2024-02-26T07:20:42;4.33;;;3.93;;
6378;SDS011;3222;48.858;10.128;2024-02-26T07:23:07;3.97;;;3.57;;
6378;SDS011;3222;48.858;10.128;2024-02-26T07:25:33;3.83;;;3.50;;
6378;SDS011;3222;48.858;10.128;2024-02-26T07:27:59;3.67;;;3.10;;
6378;SDS011;3222;48.858;10.128;2024-02-26T07:30:24;3.13;;;2.93;;
6378;SDS011;3222;48.858;10.128;2024-02-26T07:32:50;2.87;;;2.67;;
6378;SDS011;3222;48.858;10.128;2024-02-26T07:35:16;2.50;;;2.30;;
6378;SDS011;3222;48.858;10.128;2024-02-26T07:37:42;2.80;;;2.60;;
6378;SDS011;3222;48.858;10.128;2024-02-26T07:40:08;3.20;;;2.90;;
6378;SDS011;3222;48.858;10.128;2024-02-26T07:42:34;4.13;;;3.73;;
6378;SDS011;3222;48.858;10.128;2024-02-26T07:45:00;3.37;;;3.07;;
6378;SDS011;3222;48.858;10.128;2024-02-26T07:47:27;4.50;;;3.93;;
6378;SDS011;3222;48.858;10.128;2024-02-26T07:49:52;4.47;;;4.07;;
6378;SDS011;3222;48.858;10.128;2024-02-26T07:52:18;4.67;;;4.20;;
6378;SDS011;3222;48.858;10.128;2024-02-26T07:54:44;4.37;;;3.97;;
6378;SDS011;3222;48.858;10.128;2024-02-26T07:57:09;4.70;;;4.00;;
6378;SDS011;3222;48.858;10.128;2024-02-26T07:59:35;4.40;;;4.00;;
6378;SDS011;3222;48.858;10.128;2024-02-26T08:02:01;3.97;;;3.60;;
6378;SDS011;3222;48.858;10.128;2024-02-26T08:04:28;4.93;;;3.70;;
6378;SDS011;3222;48.858;10.128;2024-02-26T08:06:54;3.90;;;3.60;;
6378;SDS011;3222;48.858;10.128;2024-02-26T08:09:20;3.57;;;3.27;;
6378;SDS011;3222;48.858;10.128;2024-02-26T08:11:45;5.27;;;4.00;;
6378;SDS011;3222;48.858;10.128;2024-02-26T08:14:11;4.87;;;3.90;;
6378;SDS011;3222;48.858;10.128;2024-02-26T08:16:37;5.50;;;4.77;;
6378;SDS011;3222;48.858;10.128;2024-02-26T08:19:02;5.80;;;4.80;;
6378;SDS011;3222;48.858;10.128;2024-02-26T08:21:28;7.97;;;5.47;;
6378;SDS011;3222;48.858;10.128;2024-02-26T08:23:54;5.60;;;4.97;;
6378;SDS011;3222;48.858;10.128;2024-02-26T08:26:20;8.13;;;5.03;;
6378;SDS011;3222;48.858;10.128;2024-02-26T08:28:47;6.80;;;5.33;;
6378;SDS011;3222;48.858;10.128;2024-02-26T08:31:14;5.90;;;5.10;;
6378;SDS011;3222;48.858;10.128;2024-02-26T08:33:40;6.50;;;5.47;;
6378;SDS011;3222;48.858;10.128;2024-02-26T08:36:05;10.20;;;5.27;;
6378;SDS011;3222;48.858;10.128;2024-02-26T08:38:31;5.97;;;5.37;;
6378;SDS011;3222;48.858;10.128;2024-02-26T08:40:59;7.70;;;5.50;;
6378;SDS011;3222;48.858;10.128;2024-02-26T08:43:27;6.43;;;5.10;;
6378;SDS011;3222;48.858;10.128;2024-02-26T08:45:52;6.53;;;5.83;;
6378;SDS011;3222;48.858;10.128;2024-02-26T08:48:18;6.33;;;5.20;;
6378;SDS011;3222;48.858;10.128;2024-02-26T08:50:44;6.43;;;5.83;;
6378;SDS011;3222;48.858;10.128;2024-02-26T08:53:09;5.87;;;5.30;;
6378;SDS011;3222;48.858;10.128;2024-02-26T08:55:35;6.23;;;5.63;;
6378;SDS011;3222;48.858;10.128;2024-02-26T08:58:01;9.17;;;6.17;;
6378;SDS011;3222;48.858;10.128;2024-02-26T09:00:26;7.53;;;6.00;;
6378;SDS011;3222;48.858;10.128;2024-02-26T09:02:52;7.30;;;5.33;;
6378;SDS011;3222;48.858;10.128;2024-02-26T09:05:18;7.87;;;6.10;;
6378;SDS011;3222;48.858;10.128;2024-02-26T09:07:43;6.60;;;5.93;;
6378;SDS011;3222;48.858;10.128;2024-02-26T09:10:09;7.67;;;5.70;;
6378;SDS011;3222;48.858;10.128;2024-02-26T09:12:35;8.27;;;6.47;;
6378;SDS011;3222;48.858;10.128;2024-02-26T09:15:02;6.07;;;5.50;;
6378;SDS011;3222;48.858;10.128;2024-02-26T09:17:28;6.50;;;5.40;;
6378;SDS011;3222;48.858;10.128;2024-02-26T09:19:54;7.10;;;6.30;;
6378;SDS011;3222;48.858;10.128;2024-02-26T09:22:20;7.87;;;6.80;;
6378;SDS011;3222;48.858;10.128;2024-02-26T09:24:45;8.70;;;6.73;;
6378;SDS011;3222;48.858;10.128;2024-02-26T09:27:11;8.17;;;6.57;;
6378;SDS011;3222;48.858;10.128;2024-02-26T09:29:37;7.83;;;6.43;;
6378;SDS011;3222;48.858;10.128;2024-02-26T09:32:02;7.10;;;6.27;;
6378;SDS011;3222;48.858;10.128;2024-02-26T09:34:28;7.90;;;6.37;;
6378;SDS011;3222;48.858;10.128;2024-02-26T09:36:54;8.57;;;7.07;;
6378;SDS011;3222;48.858;10.128;2024-02-26T09:39:19;8.13;;;6.40;;
6378;SDS011;3222;48.858;10.128;2024-02-26T09:41:47;8.27;;;6.77;;
6378;SDS011;3222;48.858;10.128;2024-02-26T09:44:15;6.73;;;6.10;;
6378;SDS011;3222;48.858;10.128;2024-02-26T09:46:47;7.07;;;6.37;;
6378;SDS011;3222;48.858;10.128;2024-02-26T09:49:15;8.80;;;6.50;;
6378;SDS011;3222;48.858;10.128;2024-02-26T09:51:41;7.83;;;6.37;;
6378;SDS011;3222;48.858;10.128;2024-02-26T09:54:07;7.17;;;6.30;;
6378;SDS011;3222;48.858;10.128;2024-02-26T09:56:35;7.00;;;6.27;;
6378;SDS011;3222;48.858;10.128;2024-02-26T09:59:05;8.20;;;6.20;;
6378;SDS011;3222;48.858;10.128;2024-02-26T10:01:34;6.60;;;5.97;;
6378;SDS011;3222;48.858;10.128;2024-02-26T10:04:00;7.30;;;6.50;;
6378;SDS011;3222;48.858;10.128;2024-02-26T10:06:28;7.60;;;6.20;;
6378;SDS011;3222;48.858;10.128;2024-02-26T10:08:57;6.90;;;6.20;;
6378;SDS011;3222;48.858;10.128;2024-02-26T10:11:23;6.87;;;6.13;;
6378;SDS011;3222;48.858;10.128;2024-02-26T10:13:50;7.17;;;5.87;;
6378;SDS011;3222;48.858;10.128;2024-02-26T10:16:16;7.67;;;6.30;;
6378;SDS011;3222;48.858;10.128;2024-02-26T10:21:19;9.07;;;6.10;;
6378;SDS011;3222;48.858;10.128;2024-02-26T10:23:45;6.73;;;6.03;;
6378;SDS011;3222;48.858;10.128;2024-02-26T10:26:12;7.53;;;5.90;;
6378;SDS011;3222;48.858;10.128;2024-02-26T10:28:39;6.97;;;6.07;;
6378;SDS011;3222;48.858;10.128;2024-02-26T10:31:06;7.97;;;6.00;;
6378;SDS011;3222;48.858;10.128;2024-02-26T10:33:33;7.43;;;5.60;;
6378;SDS011;3222;48.858;10.128;2024-02-26T10:36:03;6.73;;;5.90;;
6378;SDS011;3222;48.858;10.128;2024-02-26T10:38:30;6.10;;;5.27;;
6378;SDS011;3222;48.858;10.128;2024-02-26T10:40:57;7.77;;;5.67;;
6378;SDS011;3222;48.858;10.128;2024-02-26T10:43:22;7.33;;;6.10;;
6378;SDS011;3222;48.858;10.128;2024-02-26T10:45:50;7.97;;;6.13;;
6378;SDS011;3222;48.858;10.128;2024-02-26T10:48:15;9.47;;;6.10;;
6378;SDS011;3222;48.858;10.128;2024-02-26T10:50:43;7.07;;;5.83;;
6378;SDS011;3222;48.858;10.128;2024-02-26T10:53:31;9.23;;;5.97;;
6378;SDS011;3222;48.858;10.128;2024-02-26T10:56:03;6.80;;;6.10;;
6378;SDS011;3222;48.858;10.128;2024-02-26T10:58:32;8.33;;;5.60;;
6378;SDS011;3222;48.858;10.128;2024-02-26T11:00:59;7.83;;;5.73;;
6378;SDS011;3222;48.858;10.128;2024-02-26T11:03:25;6.47;;;5.83;;
6378;SDS011;3222;48.858;10.128;2024-02-26T11:05:51;6.60;;;5.83;;
6378;SDS011;3222;48.858;10.128;2024-02-26T11:08:21;8.27;;;6.80;;
6378;SDS011;3222;48.858;10.128;2024-02-26T11:10:49;8.77;;;6.73;;
6378;SDS011;3222;48.858;10.128;2024-02-26T11:13:18;9.93;;;6.37;;
6378;SDS011;3222;48.858;10.128;2024-02-26T11:15:47;7.83;;;6.30;;
6378;SDS011;3222;48.858;10.128;2024-02-26T11:18:15;6.73;;;5.57;;
6378;SDS011;3222;48.858;10.128;2024-02-26T11:20:41;6.07;;;5.47;;
6378;SDS011;3222;48.858;10.128;2024-02-26T11:23:08;5.97;;;4.33;;
6378;SDS011;3222;48.858;10.128;2024-02-26T11:25:35;4.67;;;4.17;;
6378;SDS011;3222;48.858;10.128;2024-02-26T11:28:03;4.10;;;3.67;;
6378;SDS011;3222;48.858;10.128;2024-02-26T11:30:32;3.50;;;3.20;;
6378;SDS011;3222;48.858;10.128;2024-02-26T11:33:03;3.77;;;3.20;;
6378;SDS011;3222;48.858;10.128;2024-02-26T11:35:32;2.90;;;2.63;;
6378;SDS011;3222;48.858;10.128;2024-02-26T11:38:01;2.70;;;2.50;;
6378;SDS011;3222;48.858;10.128;2024-02-26T11:40:26;2.97;;;2.67;;
6378;SDS011;3222;48.858;10.128;2024-02-26T11:42:53;3.03;;;2.77;;
6378;SDS011;3222;48.858;10.128;2024-02-26T11:48:14;4.63;;;3.40;;
6378;SDS011;3222;48.858;10.128;2024-02-26T11:50:41;6.63;;;4.10;;
6378;SDS011;3222;48.858;10.128;2024-02-26T11:59:08;4.27;;;3.80;;
6378;SDS011;3222;48.858;10.128;2024-02-26T12:04:15;6.80;;;5.23;;
6378;SDS011;3222;48.858;10.128;2024-02-26T12:09:30;7.17;;;5.10;;
6378;SDS011;3222;48.858;10.128;2024-02-26T12:12:09;5.40;;;4.90;;
6378;SDS011;3222;48.858;10.128;2024-02-26T12:14:39;5.43;;;4.27;;
6378;SDS011;3222;48.858;10.128;2024-02-26T12:17:19;6.00;;;4.40;;
6378;SDS011;3222;48.858;10.128;2024-02-26T12:19:46;5.17;;;4.47;;
6378;SDS011;3222;48.858;10.128;2024-02-26T12:22:15;4.77;;;4.37;;
6378;SDS011;3222;48.858;10.128;2024-02-26T12:24:41;4.50;;;4.10;;
6378;SDS011;3222;48.858;10.128;2024-02-26T12:27:07;6.77;;;3.73;;
6378;SDS011;3222;48.858;10.128;2024-02-26T12:29:33;4.03;;;3.53;;
6378;SDS011;3222;48.858;10.128;2024-02-26T12:31:59;2.73;;;2.40;;
6378;SDS011;3222;48.858;10.128;2024-02-26T12:34:25;3.47;;;2.70;;
6378;SDS011;3222;48.858;10.128;2024-02-26T12:36:51;3.30;;;2.13;;
6378;SDS011;3222;48.858;10.128;2024-02-26T12:39:18;2.27;;;2.07;;
6378;SDS011;3222;48.858;10.128;2024-02-26T12:41:45;3.27;;;2.20;;
6378;SDS011;3222;48.858;10.128;2024-02-26T12:44:17;2.30;;;2.20;;
6378;SDS011;3222;48.858;10.128;2024-02-26T12:46:43;2.90;;;2.70;;
6378;SDS011;3222;48.858;10.128;2024-02-26T12:49:14;3.20;;;2.87;;
6378;SDS011;3222;48.858;10.128;2024-02-26T12:51:41;5.63;;;2.77;;
6378;SDS011;3222;48.858;10.128;2024-02-26T12:54:08;3.17;;;2.90;;
6378;SDS011;3222;48.858;10.128;2024-02-26T12:56:35;3.03;;;2.73;;
6378;SDS011;3222;48.858;10.128;2024-02-26T12:59:00;3.10;;;2.80;;
6378;SDS011;3222;48.858;10.128;2024-02-26T13:01:28;3.37;;;3.03;;
6378;SDS011;3222;48.858;10.128;2024-02-26T13:03:55;3.40;;;3.10;;
6378;SDS011;3222;48.858;10.128;2024-02-26T13:06:22;6.10;;;2.73;;
6378;SDS011;3222;48.858;10.128;2024-02-26T13:08:48;2.87;;;2.50;;
6378;SDS011;3222;48.858;10.128;2024-02-26T13:11:14;3.33;;;2.20;;
6378;SDS011;3222;48.858;10.128;2024-02-26T13:13:40;2.83;;;1.90;;
6378;SDS011;3222;48.858;10.128;2024-02-26T13:16:06;2.33;;;2.10;;
6378;SDS011;3222;48.858;10.128;2024-02-26T13:18:39;1.73;;;1.63;;
6378;SDS011;3222;48.858;10.128;2024-02-26T13:21:14;1.77;;;1.67;;
6378;SDS011;3222;48.858;10.128;2024-02-26T13:23:43;1.90;;;1.80;;
6378;SDS011;3222;48.858;10.128;2024-02-26T13:26:13;1.90;;;1.80;;
6378;SDS011;3222;48.858;10.128;2024-02-26T13:28:38;2.20;;;1.73;;
6378;SDS011;3222;48.858;10.128;2024-02-26T13:31:04;1.70;;;1.60;;
6378;SDS011;3222;48.858;10.128;2024-02-26T13:33:33;2.97;;;2.10;;
6378;SDS011;3222;48.858;10.128;2024-02-26T13:35:59;1.80;;;1.70;;
6378;SDS011;3222;48.858;10.128;2024-02-26T13:38:25;2.17;;;2.03;;
6378;SDS011;3222;48.858;10.128;2024-02-26T13:40:52;2.30;;;2.10;;
6378;SDS011;3222;48.858;10.128;2024-02-26T13:43:18;2.67;;;2.20;;
6378;SDS011;3222;48.858;10.128;2024-02-26T13:45:44;5.30;;;2.47;;
6378;SDS011;3222;48.858;10.128;2024-02-26T13:48:11;5.27;;;2.33;;
6378;SDS011;3222;48.858;10.128;2024-02-26T13:50:40;2.30;;;2.10;;
6378;SDS011;3222;48.858;10.128;2024-02-26T13:53:08;2.17;;;2.07;;
6378;SDS011;3222;48.858;10.128;2024-02-26T13:55:34;2.40;;;2.10;;
6378;SDS011;3222;48.858;10.128;2024-02-26T13:58:00;2.40;;;2.20;;
6378;SDS011;3222;48.858;10.128;2024-02-26T14:00:27;3.83;;;2.33;;
6378;SDS011;3222;48.858;10.128;2024-02-26T14:02:54;2.80;;;2.40;;
6378;SDS011;3222;48.858;10.128;2024-02-26T14:05:20;2.00;;;1.90;;
6378;SDS011;3222;48.858;10.128;2024-02-26T14:07:45;2.43;;;2.13;;
6378;SDS011;3222;48.858;10.128;2024-02-26T14:10:11;2.37;;;2.17;;
6378;SDS011;3222;48.858;10.128;2024-02-26T14:12:38;2.80;;;2.60;;
6378;SDS011;3222;48.858;10.128;2024-02-26T14:15:05;2.83;;;2.60;;
6378;SDS011;3222;48.858;10.128;2024-02-26T14:17:32;3.47;;;2.67;;
6378;SDS011;3222;48.858;10.128;2024-02-26T14:19:58;2.83;;;2.53;;
6378;SDS011;3222;48.858;10.128;2024-02-26T14:22:23;3.67;;;2.57;;
6378;SDS011;3222;48.858;10.128;2024-02-26T14:24:51;2.90;;;2.60;;
6378;SDS011;3222;48.858;10.128;2024-02-26T14:27:17;5.47;;;2.67;;
6378;SDS011;3222;48.858;10.128;2024-02-26T14:29:45;9.53;;;2.70;;
6378;SDS011;3222;48.858;10.128;2024-02-26T14:32:11;2.80;;;2.60;;
6378;SDS011;3222;48.858;10.128;2024-02-26T14:34:38;3.30;;;3.10;;
6378;SDS011;3222;48.858;10.128;2024-02-26T14:37:04;2.40;;;2.23;;
6378;SDS011;3222;48.858;10.128;2024-02-26T14:39:31;2.60;;;2.40;;
6378;SDS011;3222;48.858;10.128;2024-02-26T14:41:57;5.73;;;2.90;;
6378;SDS011;3222;48.858;10.128;2024-02-26T14:44:23;3.23;;;2.80;;
6378;SDS011;3222;48.858;10.128;2024-02-26T14:46:50;2.60;;;2.40;;
6378;SDS011;3222;48.858;10.128;2024-02-26T14:49:16;2.47;;;2.27;;
6378;SDS011;3222;48.858;10.128;2024-02-26T14:51:42;2.80;;;2.60;;
6378;SDS011;3222;48.858;10.128;2024-02-26T14:54:11;2.80;;;2.53;;
6378;SDS011;3222;48.858;10.128;2024-02-26T14:56:38;13.77;;;2.90;;
6378;SDS011;3222;48.858;10.128;2024-02-26T14:59:03;2.60;;;2.40;;
6378;SDS011;3222;48.858;10.128;2024-02-26T15:01:29;2.67;;;2.47;;
6378;SDS011;3222;48.858;10.128;2024-02-26T15:03:55;2.50;;;2.10;;
6378;SDS011;3222;48.858;10.128;2024-02-26T15:06:22;2.33;;;2.13;;
6378;SDS011;3222;48.858;10.128;2024-02-26T15:08:48;2.43;;;2.23;;
6378;SDS011;3222;48.858;10.128;2024-02-26T15:11:14;6.47;;;2.40;;
6378;SDS011;3222;48.858;10.128;2024-02-26T15:13:40;2.47;;;2.27;;